sensor_id;sensor_type;location;lat;lon;timestamp;pressure;altitude;pressure_sealevel;temperature;humidity
7774;BME280;3931;42.260;23.116;2022-11-20T00:01:34;94779.66;;;25.47;47.92
7774;BME280;3931;42.260;23.116;2022-11-20T00:04:00;94734.19;;;25.73;47.87
7774;BME280;3931;42.260;23.116;2022-11-20T00:06:27;94755.13;;;25.70;47.69
7774;BME280;3931;42.260;23.116;2022-11-20T00:08:54;94733.84;;;25.77;47.75
7774;BME280;3931;42.260;23.116;2022-11-20T00:11:23;94723.47;;;26.36;47.11
7774;BME280;3931;42.260;23.116;2022-11-20T00:13:51;94718.13;;;26.25;47.09
7774;BME280;3931;42.260;23.116;2022-11-20T00:16:20;94704.13;;;25.70;47.58
7774;BME280;3931;42.260;23.116;2022-11-20T00:18:47;94711.13;;;25.97;47.61
7774;BME280;3931;42.260;23.116;2022-11-20T00:21:16;94721.44;;;25.87;47.20
7774;BME280;3931;42.260;23.116;2022-11-20T00:23:43;94711.44;;;25.86;47.40
7774;BME280;3931;42.260;23.116;2022-11-20T00:26:10;94723.19;;;25.70;47.59
7774;BME280;3931;42.260;23.116;2022-11-20T00:28:37;94734.81;;;25.79;47.57
7774;BME280;3931;42.260;23.116;2022-11-20T00:31:05;94715.63;;;25.93;47.39
7774;BME280;3931;42.260;23.116;2022-11-20T00:33:31;94727.81;;;25.80;47.67
7774;BME280;3931;42.260;23.116;2022-11-20T00:36:02;94752.63;;;25.67;47.77
7774;BME280;3931;42.260;23.116;2022-11-20T00:38:29;94707.47;;;25.61;48.11
7774;BME280;3931;42.260;23.116;2022-11-20T00:40:56;94726.59;;;25.96;47.16
7774;BME280;3931;42.260;23.116;2022-11-20T00:43:23;94725.75;;;25.81;47.11
7774;BME280;3931;42.260;23.116;2022-11-20T00:45:49;94717.94;;;25.74;47.46
7774;BME280;3931;42.260;23.116;2022-11-20T00:48:15;94748.09;;;25.64;47.74
7774;BME280;3931;42.260;23.116;2022-11-20T00:50:41;94734.31;;;26.17;46.81
7774;BME280;3931;42.260;23.116;2022-11-20T00:53:08;94735.06;;;25.89;46.94
7774;BME280;3931;42.260;23.116;2022-11-20T00:55:34;94724.28;;;25.87;47.01
7774;BME280;3931;42.260;23.116;2022-11-20T00:58:00;94741.09;;;25.65;47.33
7774;BME280;3931;42.260;23.116;2022-11-20T01:00:26;94727.53;;;26.20;46.84
7774;BME280;3931;42.260;23.116;2022-11-20T01:02:55;94724.53;;;26.25;46.75
7774;BME280;3931;42.260;23.116;2022-11-20T01:05:21;94707.72;;;25.71;47.23
7774;BME280;3931;42.260;23.116;2022-11-20T01:07:47;94706.97;;;25.70;47.44
7774;BME280;3931;42.260;23.116;2022-11-20T01:10:14;94709.78;;;25.70;47.23
7774;BME280;3931;42.260;23.116;2022-11-20T01:12:40;94721.03;;;25.55;47.81
7774;BME280;3931;42.260;23.116;2022-11-20T01:15:07;94696.63;;;25.80;47.51
7774;BME280;3931;42.260;23.116;2022-11-20T01:17:34;94698.97;;;25.89;47.43
7774;BME280;3931;42.260;23.116;2022-11-20T01:20:00;94711.75;;;25.83;47.28
7774;BME280;3931;42.260;23.116;2022-11-20T01:22:26;94707.47;;;25.61;47.66
7774;BME280;3931;42.260;23.116;2022-11-20T01:24:52;94707.66;;;25.91;47.03
7774;BME280;3931;42.260;23.116;2022-11-20T01:27:19;94714.50;;;25.68;47.78
7774;BME280;3931;42.260;23.116;2022-11-20T01:29:45;94675.19;;;25.64;47.74
7774;BME280;3931;42.260;23.116;2022-11-20T01:32:11;94683.91;;;25.46;47.34
7774;BME280;3931;42.260;23.116;2022-11-20T01:34:37;94672.22;;;25.49;47.86
7774;BME280;3931;42.260;23.116;2022-11-20T01:37:03;94689.03;;;25.26;48.29
7774;BME280;3931;42.260;23.116;2022-11-20T01:39:29;94653.06;;;25.63;47.17
7774;BME280;3931;42.260;23.116;2022-11-20T01:41:56;94655.84;;;25.55;47.61
7774;BME280;3931;42.260;23.116;2022-11-20T01:44:48;94619.09;;;25.42;47.74
7774;BME280;3931;42.260;23.116;2022-11-20T01:47:17;94649.44;;;25.55;47.71
7774;BME280;3931;42.260;23.116;2022-11-20T01:49:49;94638.84;;;25.83;46.97
7774;BME280;3931;42.260;23.116;2022-11-20T01:52:17;94647.50;;;25.50;47.56
7774;BME280;3931;42.260;23.116;2022-11-20T01:54:48;94643.06;;;25.41;47.56
7774;BME280;3931;42.260;23.116;2022-11-20T01:57:15;94653.72;;;25.76;46.67
7774;BME280;3931;42.260;23.116;2022-11-20T01:59:47;94652.59;;;25.51;46.81
7774;BME280;3931;42.260;23.116;2022-11-20T02:02:15;94649.09;;;25.17;47.80
7774;BME280;3931;42.260;23.116;2022-11-20T02:04:41;94651.19;;;25.65;47.29
7774;BME280;3931;42.260;23.116;2022-11-20T02:07:07;94649.50;;;25.42;47.50
7774;BME280;3931;42.260;23.116;2022-11-20T02:09:34;94633.13;;;25.48;47.58
7774;BME280;3931;42.260;23.116;2022-11-20T02:12:00;94655.25;;;25.77;46.74
7774;BME280;3931;42.260;23.116;2022-11-20T02:14:28;94674.59;;;25.86;47.07
7774;BME280;3931;42.260;23.116;2022-11-20T02:16:55;94665.97;;;25.99;46.56
7774;BME280;3931;42.260;23.116;2022-11-20T02:19:24;94727.28;;;25.41;47.56
7774;BME280;3931;42.260;23.116;2022-11-20T02:21:58;94657.53;;;25.51;47.31
7774;BME280;3931;42.260;23.116;2022-11-20T02:24:26;94689.09;;;25.55;47.46
7774;BME280;3931;42.260;23.116;2022-11-20T02:26:54;94660.91;;;25.77;47.61
7774;BME280;3931;42.260;23.116;2022-11-20T02:29:26;94666.78;;;25.79;47.85
7774;BME280;3931;42.260;23.116;2022-11-20T02:31:54;94669.56;;;26.00;47.96
7774;BME280;3931;42.260;23.116;2022-11-20T02:34:21;94665.63;;;25.75;48.29
7774;BME280;3931;42.260;23.116;2022-11-20T02:36:48;94664.47;;;25.29;48.87
7774;BME280;3931;42.260;23.116;2022-11-20T02:39:15;94676.66;;;25.37;48.88
7774;BME280;3931;42.260;23.116;2022-11-20T02:41:43;94697.16;;;25.09;49.39
7774;BME280;3931;42.260;23.116;2022-11-20T02:44:09;94689.66;;;25.53;48.61
7774;BME280;3931;42.260;23.116;2022-11-20T02:46:35;94696.88;;;25.62;49.30
7774;BME280;3931;42.260;23.116;2022-11-20T02:49:02;94701.66;;;25.25;49.49
7774;BME280;3931;42.260;23.116;2022-11-20T02:51:28;94703.50;;;24.69;50.45
7774;BME280;3931;42.260;23.116;2022-11-20T02:53:55;94691.28;;;25.28;49.51
7774;BME280;3931;42.260;23.116;2022-11-20T02:56:21;94709.75;;;25.42;49.44
7774;BME280;3931;42.260;23.116;2022-11-20T02:58:48;94714.72;;;25.49;51.10
7774;BME280;3931;42.260;23.116;2022-11-20T03:01:14;94713.66;;;24.98;51.38
7774;BME280;3931;42.260;23.116;2022-11-20T03:03:40;94727.72;;;24.90;50.06
7774;BME280;3931;42.260;23.116;2022-11-20T03:06:06;94723.00;;;25.06;49.64
7774;BME280;3931;42.260;23.116;2022-11-20T03:08:33;94727.41;;;25.14;49.73
7774;BME280;3931;42.260;23.116;2022-11-20T03:11:02;94740.59;;;24.78;50.33
7774;BME280;3931;42.260;23.116;2022-11-20T03:13:28;94738.88;;;25.29;49.47
7774;BME280;3931;42.260;23.116;2022-11-20T03:15:55;94731.75;;;25.36;49.35
7774;BME280;3931;42.260;23.116;2022-11-20T03:18:21;94737.00;;;25.32;49.36
7774;BME280;3931;42.260;23.116;2022-11-20T03:20:47;94756.06;;;24.77;50.23
7774;BME280;3931;42.260;23.116;2022-11-20T03:23:13;94716.47;;;24.77;50.38
7774;BME280;3931;42.260;23.116;2022-11-20T03:25:39;94744.53;;;25.29;50.18
7774;BME280;3931;42.260;23.116;2022-11-20T03:28:05;94773.22;;;24.92;50.42
7774;BME280;3931;42.260;23.116;2022-11-20T03:30:32;94765.81;;;25.23;49.76
7774;BME280;3931;42.260;23.116;2022-11-20T03:32:58;94781.91;;;25.28;49.77
7774;BME280;3931;42.260;23.116;2022-11-20T03:35:25;94761.09;;;25.59;49.32
7774;BME280;3931;42.260;23.116;2022-11-20T03:37:51;94774.13;;;25.42;49.57
7774;BME280;3931;42.260;23.116;2022-11-20T03:40:17;94778.84;;;25.05;50.73
7774;BME280;3931;42.260;23.116;2022-11-20T03:42:43;94775.38;;;25.33;50.87
7774;BME280;3931;42.260;23.116;2022-11-20T03:45:12;94767.41;;;25.11;51.88
7774;BME280;3931;42.260;23.116;2022-11-20T03:47:39;94767.59;;;25.13;51.83
7774;BME280;3931;42.260;23.116;2022-11-20T03:50:07;94769.88;;;25.14;52.21
7774;BME280;3931;42.260;23.116;2022-11-20T03:52:33;94767.09;;;25.01;53.44
7774;BME280;3931;42.260;23.116;2022-11-20T03:54:59;94756.34;;;24.14;55.66
7774;BME280;3931;42.260;23.116;2022-11-20T03:57:25;94760.34;;;24.44;56.46
7774;BME280;3931;42.260;23.116;2022-11-20T03:59:51;94766.28;;;24.80;55.13
7774;BME280;3931;42.260;23.116;2022-11-20T04:02:17;94764.25;;;24.54;55.37
7774;BME280;3931;42.260;23.116;2022-11-20T04:04:43;94768.78;;;24.71;55.70
7774;BME280;3931;42.260;23.116;2022-11-20T04:07:10;94760.56;;;24.33;56.65
7774;BME280;3931;42.260;23.116;2022-11-20T04:09:36;94773.78;;;24.78;58.16
7774;BME280;3931;42.260;23.116;2022-11-20T04:12:03;94786.09;;;24.80;58.88
7774;BME280;3931;42.260;23.116;2022-11-20T04:14:29;94780.81;;;24.11;59.40
7774;BME280;3931;42.260;23.116;2022-11-20T04:16:55;94787.88;;;24.18;59.51
7774;BME280;3931;42.260;23.116;2022-11-20T04:19:21;94784.03;;;24.68;60.29
7774;BME280;3931;42.260;23.116;2022-11-20T04:21:47;94781.34;;;24.23;64.88
7774;BME280;3931;42.260;23.116;2022-11-20T04:24:14;94759.72;;;24.12;68.12
7774;BME280;3931;42.260;23.116;2022-11-20T04:26:40;94709.34;;;23.71;74.00
7774;BME280;3931;42.260;23.116;2022-11-20T04:29:10;94697.06;;;23.56;76.51
7774;BME280;3931;42.260;23.116;2022-11-20T04:31:36;94705.13;;;23.91;74.91
7774;BME280;3931;42.260;23.116;2022-11-20T04:34:04;94661.63;;;23.42;79.46
7774;BME280;3931;42.260;23.116;2022-11-20T04:36:31;94648.19;;;23.03;80.96
7774;BME280;3931;42.260;23.116;2022-11-20T04:38:59;94654.84;;;23.18;81.08
7774;BME280;3931;42.260;23.116;2022-11-20T04:41:27;94660.72;;;23.20;81.02
7774;BME280;3931;42.260;23.116;2022-11-20T04:43:55;94659.44;;;23.35;80.46
7774;BME280;3931;42.260;23.116;2022-11-20T04:46:25;94638.34;;;23.09;83.16
7774;BME280;3931;42.260;23.116;2022-11-20T04:48:51;94648.25;;;23.29;82.50
7774;BME280;3931;42.260;23.116;2022-11-20T04:51:17;94613.41;;;22.82;85.70
7774;BME280;3931;42.260;23.116;2022-11-20T04:53:44;94663.03;;;23.03;82.95
7774;BME280;3931;42.260;23.116;2022-11-20T04:56:11;94632.38;;;22.81;84.37
7774;BME280;3931;42.260;23.116;2022-11-20T04:58:38;94626.03;;;22.94;84.17
7774;BME280;3931;42.260;23.116;2022-11-20T05:01:06;94671.34;;;22.83;82.52
7774;BME280;3931;42.260;23.116;2022-11-20T05:03:33;94652.59;;;22.85;84.40
7774;BME280;3931;42.260;23.116;2022-11-20T05:06:00;94670.56;;;23.01;82.63
7774;BME280;3931;42.260;23.116;2022-11-20T05:08:27;94667.56;;;22.80;83.48
7774;BME280;3931;42.260;23.116;2022-11-20T05:10:53;94655.84;;;22.39;86.57
7774;BME280;3931;42.260;23.116;2022-11-20T05:13:19;94569.53;;;22.36;89.62
7774;BME280;3931;42.260;23.116;2022-11-20T05:15:46;94559.34;;;22.65;89.74
7774;BME280;3931;42.260;23.116;2022-11-20T05:18:12;94539.44;;;22.57;91.13
7774;BME280;3931;42.260;23.116;2022-11-20T05:20:38;94457.22;;;21.95;96.96
7774;BME280;3931;42.260;23.116;2022-11-20T05:23:04;94531.91;;;22.65;92.64
7774;BME280;3931;42.260;23.116;2022-11-20T05:25:30;94553.72;;;22.14;91.78
7774;BME280;3931;42.260;23.116;2022-11-20T05:27:56;94514.06;;;22.57;94.19
7774;BME280;3931;42.260;23.116;2022-11-20T05:30:22;94508.81;;;22.67;94.59
7774;BME280;3931;42.260;23.116;2022-11-20T05:32:49;94460.50;;;22.44;97.13
7774;BME280;3931;42.260;23.116;2022-11-20T05:35:15;94464.94;;;22.39;96.62
7774;BME280;3931;42.260;23.116;2022-11-20T05:37:41;94474.56;;;22.31;96.31
7774;BME280;3931;42.260;23.116;2022-11-20T05:40:09;94545.72;;;23.08;90.84
7774;BME280;3931;42.260;23.116;2022-11-20T05:42:35;94571.50;;;22.41;91.06
7774;BME280;3931;42.260;23.116;2022-11-20T05:45:03;94592.50;;;23.03;88.65
7774;BME280;3931;42.260;23.116;2022-11-20T05:47:32;94550.63;;;22.49;90.83
7774;BME280;3931;42.260;23.116;2022-11-20T05:49:59;94573.78;;;22.42;89.72
7774;BME280;3931;42.260;23.116;2022-11-20T05:52:28;94605.25;;;22.28;88.06
7774;BME280;3931;42.260;23.116;2022-11-20T05:54:54;94675.25;;;22.80;83.00
7774;BME280;3931;42.260;23.116;2022-11-20T05:57:20;94653.25;;;22.41;85.01
7774;BME280;3931;42.260;23.116;2022-11-20T05:59:46;94689.72;;;22.52;82.77
7774;BME280;3931;42.260;23.116;2022-11-20T06:02:13;94708.25;;;22.29;82.11
7774;BME280;3931;42.260;23.116;2022-11-20T06:04:39;94701.44;;;22.93;79.63
7774;BME280;3931;42.260;23.116;2022-11-20T06:07:06;94691.03;;;22.51;81.05
7774;BME280;3931;42.260;23.116;2022-11-20T06:09:32;94739.34;;;22.79;76.29
7774;BME280;3931;42.260;23.116;2022-11-20T06:11:58;94750.03;;;22.86;75.30
7774;BME280;3931;42.260;23.116;2022-11-20T06:14:24;94755.38;;;22.90;76.28
7774;BME280;3931;42.260;23.116;2022-11-20T06:16:50;94697.56;;;22.96;78.23
7774;BME280;3931;42.260;23.116;2022-11-20T06:19:16;94665.00;;;22.95;82.36
7774;BME280;3931;42.260;23.116;2022-11-20T06:21:42;94637.53;;;22.64;85.06
7774;BME280;3931;42.260;23.116;2022-11-20T06:24:10;94665.72;;;22.83;81.86
7774;BME280;3931;42.260;23.116;2022-11-20T06:26:36;94649.81;;;22.98;82.65
7774;BME280;3931;42.260;23.116;2022-11-20T06:29:02;94695.47;;;22.97;78.05
7774;BME280;3931;42.260;23.116;2022-11-20T06:31:28;94756.66;;;22.70;73.37
7774;BME280;3931;42.260;23.116;2022-11-20T06:33:55;94774.13;;;23.19;69.23
7774;BME280;3931;42.260;23.116;2022-11-20T06:36:22;94703.66;;;23.00;78.07
7774;BME280;3931;42.260;23.116;2022-11-20T06:38:48;94613.22;;;22.61;85.72
7774;BME280;3931;42.260;23.116;2022-11-20T06:41:17;94572.81;;;22.40;88.59
7774;BME280;3931;42.260;23.116;2022-11-20T06:43:43;94609.34;;;22.45;87.53
7774;BME280;3931;42.260;23.116;2022-11-20T06:46:10;94712.34;;;22.84;80.58
7774;BME280;3931;42.260;23.116;2022-11-20T06:48:36;94778.97;;;23.56;70.65
7774;BME280;3931;42.260;23.116;2022-11-20T06:51:03;94806.06;;;23.14;68.53
7774;BME280;3931;42.260;23.116;2022-11-20T06:53:30;94805.38;;;23.58;66.42
7774;BME280;3931;42.260;23.116;2022-11-20T06:55:57;94807.94;;;23.43;66.18
7774;BME280;3931;42.260;23.116;2022-11-20T06:58:26;94798.47;;;23.41;65.41
7774;BME280;3931;42.260;23.116;2022-11-20T07:00:53;94818.59;;;23.32;65.53
7774;BME280;3931;42.260;23.116;2022-11-20T07:03:19;94830.38;;;24.12;63.75
7774;BME280;3931;42.260;23.116;2022-11-20T07:05:45;94824.91;;;24.01;64.82
7774;BME280;3931;42.260;23.116;2022-11-20T07:08:12;94828.00;;;23.71;65.56
7774;BME280;3931;42.260;23.116;2022-11-20T07:10:38;94819.31;;;23.69;67.81
7774;BME280;3931;42.260;23.116;2022-11-20T07:13:04;94795.09;;;23.87;71.15
7774;BME280;3931;42.260;23.116;2022-11-20T07:15:32;94763.16;;;23.92;73.44
7774;BME280;3931;42.260;23.116;2022-11-20T07:17:59;94740.63;;;23.73;76.74
7774;BME280;3931;42.260;23.116;2022-11-20T07:20:26;94690.50;;;23.35;81.20
7774;BME280;3931;42.260;23.116;2022-11-20T07:22:53;94681.09;;;23.45;81.99
7774;BME280;3931;42.260;23.116;2022-11-20T07:25:20;94662.22;;;23.21;83.34
7774;BME280;3931;42.260;23.116;2022-11-20T07:27:46;94615.03;;;22.77;86.97
7774;BME280;3931;42.260;23.116;2022-11-20T07:30:13;94603.09;;;22.71;88.53
7774;BME280;3931;42.260;23.116;2022-11-20T07:32:40;94589.75;;;22.53;89.05
7774;BME280;3931;42.260;23.116;2022-11-20T07:35:07;94604.53;;;22.91;87.43
7774;BME280;3931;42.260;23.116;2022-11-20T07:37:34;94612.94;;;22.65;88.25
7774;BME280;3931;42.260;23.116;2022-11-20T07:40:00;94602.50;;;22.60;89.58
7774;BME280;3931;42.260;23.116;2022-11-20T07:42:26;94589.59;;;22.64;91.35
7774;BME280;3931;42.260;23.116;2022-11-20T07:44:52;94636.34;;;22.60;88.77
7774;BME280;3931;42.260;23.116;2022-11-20T07:47:18;94564.94;;;22.52;92.92
7774;BME280;3931;42.260;23.116;2022-11-20T07:49:45;94547.13;;;22.57;94.36
7774;BME280;3931;42.260;23.116;2022-11-20T07:52:11;94502.19;;;22.32;97.73
7774;BME280;3931;42.260;23.116;2022-11-20T07:54:37;94482.44;;;22.64;97.32
7774;BME280;3931;42.260;23.116;2022-11-20T07:57:03;94511.09;;;22.81;96.10
7774;BME280;3931;42.260;23.116;2022-11-20T07:59:29;94529.22;;;22.86;94.74
7774;BME280;3931;42.260;23.116;2022-11-20T08:01:55;94515.97;;;22.68;95.83
7774;BME280;3931;42.260;23.116;2022-11-20T08:04:21;94473.25;;;23.03;97.58
7774;BME280;3931;42.260;23.116;2022-11-20T08:06:49;94526.97;;;23.10;94.18
7774;BME280;3931;42.260;23.116;2022-11-20T08:09:15;94524.56;;;22.75;95.10
7774;BME280;3931;42.260;23.116;2022-11-20T08:11:41;94535.75;;;22.81;93.84
7774;BME280;3931;42.260;23.116;2022-11-20T08:14:25;94599.75;;;22.86;91.17
7774;BME280;3931;42.260;23.116;2022-11-20T08:16:52;94608.34;;;22.93;90.50
7774;BME280;3931;42.260;23.116;2022-11-20T08:19:18;94573.34;;;22.70;92.39
7774;BME280;3931;42.260;23.116;2022-11-20T08:21:45;94492.34;;;22.39;98.05
7774;BME280;3931;42.260;23.116;2022-11-20T08:24:12;94535.84;;;22.75;96.59
7774;BME280;3931;42.260;23.116;2022-11-20T08:26:39;94512.53;;;22.43;97.80
7774;BME280;3931;42.260;23.116;2022-11-20T08:29:06;94534.34;;;23.00;96.61
7774;BME280;3931;42.260;23.116;2022-11-20T08:31:32;94569.63;;;22.94;94.55
7774;BME280;3931;42.260;23.116;2022-11-20T08:33:58;94530.34;;;23.09;95.94
7774;BME280;3931;42.260;23.116;2022-11-20T08:36:24;94525.47;;;22.96;97.22
7774;BME280;3931;42.260;23.116;2022-11-20T08:38:52;94433.88;;;22.84;100.00
7774;BME280;3931;42.260;23.116;2022-11-20T08:41:19;94498.09;;;22.91;100.00
7774;BME280;3931;42.260;23.116;2022-11-20T08:43:57;94509.03;;;22.69;99.21
7774;BME280;3931;42.260;23.116;2022-11-20T08:46:24;94503.41;;;22.95;99.58
7774;BME280;3931;42.260;23.116;2022-11-20T08:48:51;94534.63;;;22.71;98.49
7774;BME280;3931;42.260;23.116;2022-11-20T08:51:17;94561.38;;;22.96;95.63
7774;BME280;3931;42.260;23.116;2022-11-20T08:53:44;94515.03;;;23.04;97.23
7774;BME280;3931;42.260;23.116;2022-11-20T08:56:10;94573.84;;;23.00;94.47
7774;BME280;3931;42.260;23.116;2022-11-20T08:58:37;94525.00;;;22.92;97.65
7774;BME280;3931;42.260;23.116;2022-11-20T09:01:04;94551.28;;;23.00;96.15
7774;BME280;3931;42.260;23.116;2022-11-20T09:03:30;94555.19;;;23.10;95.57
7774;BME280;3931;42.260;23.116;2022-11-20T09:05:57;94541.94;;;23.32;96.32
7774;BME280;3931;42.260;23.116;2022-11-20T09:08:24;94530.41;;;22.77;96.71
7774;BME280;3931;42.260;23.116;2022-11-20T09:10:51;94583.97;;;22.45;94.42
7774;BME280;3931;42.260;23.116;2022-11-20T09:13:17;94630.22;;;22.56;91.23
7774;BME280;3931;42.260;23.116;2022-11-20T09:15:44;94641.00;;;22.89;90.38
7774;BME280;3931;42.260;23.116;2022-11-20T09:18:10;94585.03;;;22.61;94.18
7774;BME280;3931;42.260;23.116;2022-11-20T09:20:36;94597.25;;;22.82;93.58
7774;BME280;3931;42.260;23.116;2022-11-20T09:23:02;94515.81;;;22.47;98.65
7774;BME280;3931;42.260;23.116;2022-11-20T09:25:28;94473.16;;;22.37;100.00
7774;BME280;3931;42.260;23.116;2022-11-20T09:27:55;94414.75;;;22.38;100.00
7774;BME280;3931;42.260;23.116;2022-11-20T09:30:21;94376.56;;;22.37;100.00
7774;BME280;3931;42.260;23.116;2022-11-20T09:32:48;94425.81;;;22.49;100.00
7774;BME280;3931;42.260;23.116;2022-11-20T09:35:14;94451.22;;;22.62;100.00
7774;BME280;3931;42.260;23.116;2022-11-20T09:37:40;94463.75;;;22.48;100.00
7774;BME280;3931;42.260;23.116;2022-11-20T09:40:19;94446.44;;;22.83;100.00
7774;BME280;3931;42.260;23.116;2022-11-20T09:42:47;94468.28;;;22.83;100.00
7774;BME280;3931;42.260;23.116;2022-11-20T09:45:23;94419.00;;;22.84;100.00
7774;BME280;3931;42.260;23.116;2022-11-20T09:48:11;94480.50;;;23.25;97.60
7774;BME280;3931;42.260;23.116;2022-11-20T09:50:45;94506.13;;;23.40;95.13
7774;BME280;3931;42.260;23.116;2022-11-20T09:53:20;94451.63;;;23.32;97.93
7774;BME280;3931;42.260;23.116;2022-11-20T09:55:49;94449.34;;;23.43;97.16
7774;BME280;3931;42.260;23.116;2022-11-20T09:58:21;94443.84;;;22.98;97.56
7774;BME280;3931;42.260;23.116;2022-11-20T10:00:51;94467.81;;;23.18;96.13
7774;BME280;3931;42.260;23.116;2022-11-20T10:03:29;94484.63;;;23.23;95.22
7774;BME280;3931;42.260;23.116;2022-11-20T10:06:02;94585.34;;;23.02;88.14
7774;BME280;3931;42.260;23.116;2022-11-20T10:08:38;94638.13;;;23.07;82.84
7774;BME280;3931;42.260;23.116;2022-11-20T10:11:13;94668.97;;;23.32;80.52
7774;BME280;3931;42.260;23.116;2022-11-20T10:13:51;94613.41;;;23.66;84.16
7774;BME280;3931;42.260;23.116;2022-11-20T10:16:32;94657.84;;;23.65;80.55
7774;BME280;3931;42.260;23.116;2022-11-20T10:19:11;94593.22;;;23.62;84.73
7774;BME280;3931;42.260;23.116;2022-11-20T10:21:56;94678.69;;;23.49;75.50
7774;BME280;3931;42.260;23.116;2022-11-20T10:24:44;94705.47;;;24.14;71.60
7774;BME280;3931;42.260;23.116;2022-11-20T10:27:45;94724.25;;;24.11;67.74
7774;BME280;3931;42.260;23.116;2022-11-20T10:30:15;94718.72;;;23.92;68.43
7774;BME280;3931;42.260;23.116;2022-11-20T10:32:43;94735.16;;;24.07;66.56
7774;BME280;3931;42.260;23.116;2022-11-20T10:35:20;94734.34;;;24.33;64.67
7774;BME280;3931;42.260;23.116;2022-11-20T10:37:50;94724.47;;;24.13;66.66
7774;BME280;3931;42.260;23.116;2022-11-20T10:40:23;94738.50;;;24.19;64.96
7774;BME280;3931;42.260;23.116;2022-11-20T10:42:55;94726.00;;;24.27;66.80
7774;BME280;3931;42.260;23.116;2022-11-20T10:45:33;94719.38;;;23.85;65.34
7774;BME280;3931;42.260;23.116;2022-11-20T10:48:11;94730.13;;;24.26;64.94
7774;BME280;3931;42.260;23.116;2022-11-20T10:50:44;94730.81;;;24.19;63.49
7774;BME280;3931;42.260;23.116;2022-11-20T10:53:19;94741.41;;;24.52;62.12
7774;BME280;3931;42.260;23.116;2022-11-20T10:55:54;94740.56;;;24.18;63.37
7774;BME280;3931;42.260;23.116;2022-11-20T10:58:30;94744.25;;;24.00;65.73
7774;BME280;3931;42.260;23.116;2022-11-20T11:01:04;94748.78;;;23.64;67.87
7774;BME280;3931;42.260;23.116;2022-11-20T11:03:31;94745.34;;;24.36;70.19
7774;BME280;3931;42.260;23.116;2022-11-20T11:06:02;94711.66;;;23.99;76.25
7774;BME280;3931;42.260;23.116;2022-11-20T11:08:35;94683.38;;;23.60;79.59
7774;BME280;3931;42.260;23.116;2022-11-20T11:11:08;94665.78;;;23.41;82.64
7774;BME280;3931;42.260;23.116;2022-11-20T11:13:37;94643.41;;;23.56;84.81
7774;BME280;3931;42.260;23.116;2022-11-20T11:16:04;94654.28;;;23.52;85.32
7774;BME280;3931;42.260;23.116;2022-11-20T11:18:31;94618.44;;;23.02;87.90
7774;BME280;3931;42.260;23.116;2022-11-20T11:21:00;94615.59;;;22.89;88.67
7774;BME280;3931;42.260;23.116;2022-11-20T11:23:31;94619.28;;;22.97;88.74
7774;BME280;3931;42.260;23.116;2022-11-20T11:25:59;94491.91;;;22.35;96.01
7774;BME280;3931;42.260;23.116;2022-11-20T11:28:26;94565.97;;;22.67;92.00
7774;BME280;3931;42.260;23.116;2022-11-20T11:30:54;94620.88;;;22.79;88.94
7774;BME280;3931;42.260;23.116;2022-11-20T11:33:22;94498.47;;;22.11;96.28
7774;BME280;3931;42.260;23.116;2022-11-20T11:35:50;94617.81;;;22.45;89.35
7774;BME280;3931;42.260;23.116;2022-11-20T11:38:22;94639.22;;;22.86;87.60
7774;BME280;3931;42.260;23.116;2022-11-20T11:40:49;94581.03;;;22.38;92.42
7774;BME280;3931;42.260;23.116;2022-11-20T11:43:19;94519.41;;;21.97;97.12
7774;BME280;3931;42.260;23.116;2022-11-20T11:46:23;94505.47;;;22.05;98.28
7774;BME280;3931;42.260;23.116;2022-11-20T11:48:55;94466.81;;;21.68;100.00
7774;BME280;3931;42.260;23.116;2022-11-20T11:51:22;94467.03;;;21.70;100.00
7774;BME280;3931;42.260;23.116;2022-11-20T11:53:50;94449.56;;;21.58;100.00
7774;BME280;3931;42.260;23.116;2022-11-20T11:56:16;94512.81;;;21.76;99.73
7774;BME280;3931;42.260;23.116;2022-11-20T11:58:45;94520.25;;;21.73;100.00
7774;BME280;3931;42.260;23.116;2022-11-20T12:01:21;94591.72;;;22.08;96.79
7774;BME280;3931;42.260;23.116;2022-11-20T12:03:58;94578.66;;;21.92;96.28
7774;BME280;3931;42.260;23.116;2022-11-20T12:06:25;94616.41;;;22.02;92.64
7774;BME280;3931;42.260;23.116;2022-11-20T12:08:58;94681.50;;;22.17;90.63
7774;BME280;3931;42.260;23.116;2022-11-20T12:11:32;94549.47;;;21.70;98.48
7774;BME280;3931;42.260;23.116;2022-11-20T12:14:03;94601.00;;;22.40;93.84
7774;BME280;3931;42.260;23.116;2022-11-20T12:16:35;94585.03;;;21.92;94.36
7774;BME280;3931;42.260;23.116;2022-11-20T12:19:08;94470.47;;;21.82;100.00
7774;BME280;3931;42.260;23.116;2022-11-20T12:21:43;94461.53;;;21.96;100.00
7774;BME280;3931;42.260;23.116;2022-11-20T12:24:39;94418.06;;;22.23;100.00
7774;BME280;3931;42.260;23.116;2022-11-20T12:30:13;94467.72;;;22.71;99.32
7774;BME280;3931;42.260;23.116;2022-11-20T12:33:04;94395.44;;;22.29;100.00
7774;BME280;3931;42.260;23.116;2022-11-20T12:35:44;94373.53;;;22.22;100.00
7774;BME280;3931;42.260;23.116;2022-11-20T12:38:47;94315.13;;;22.22;100.00
7774;BME280;3931;42.260;23.116;2022-11-20T12:41:28;94342.75;;;22.37;100.00
7774;BME280;3931;42.260;23.116;2022-11-20T12:44:30;94340.03;;;22.44;100.00
7774;BME280;3931;42.260;23.116;2022-11-20T12:47:24;94390.78;;;22.84;100.00
7774;BME280;3931;42.260;23.116;2022-11-20T12:50:01;94290.06;;;22.32;100.00
7774;BME280;3931;42.260;23.116;2022-11-20T12:52:38;94275.66;;;22.35;100.00
7774;BME280;3931;42.260;23.116;2022-11-20T12:55:25;94239.66;;;22.28;100.00
7774;BME280;3931;42.260;23.116;2022-11-20T12:57:58;94298.97;;;22.36;100.00
7774;BME280;3931;42.260;23.116;2022-11-20T13:00:26;94271.66;;;22.31;100.00
7774;BME280;3931;42.260;23.116;2022-11-20T13:05:52;94182.88;;;22.24;100.00
7774;BME280;3931;42.260;23.116;2022-11-20T13:08:23;94184.50;;;22.33;100.00
7774;BME280;3931;42.260;23.116;2022-11-20T13:10:54;94219.19;;;22.15;100.00
7774;BME280;3931;42.260;23.116;2022-11-20T13:13:25;94262.66;;;22.06;100.00
7774;BME280;3931;42.260;23.116;2022-11-20T13:15:57;94292.88;;;22.06;100.00
7774;BME280;3931;42.260;23.116;2022-11-20T13:18:26;94295.25;;;22.28;100.00
7774;BME280;3931;42.260;23.116;2022-11-20T13:20:53;94344.28;;;22.38;100.00
7774;BME280;3931;42.260;23.116;2022-11-20T13:23:25;94406.53;;;22.79;98.39
7774;BME280;3931;42.260;23.116;2022-11-20T13:26:03;94380.78;;;22.43;100.00